Aérodrome :
LOGIN :

S'inscrire | Disclaimer

   EN    FR    IT 

 










Légende :    VFR   VFR Marginal   IFR   IFR Intensif   IFR Très Intensif
Visi : 
Plafond : 
>= 8 km
>= 3000ft
5 à 8 km
1000 à 3000 ft
1500m à 5 km
500 à 1000 ft
800 à 1500m
200 à 500 ft
< 800m
< 200 ft
Symboles :   Orages  Brouillard  Fortes neiges  Fortes précipitations  Vent > 20 kt
SIGMETs :   Divers  Orages  Givrage  Turbulence  Onde Orograph.  Cendres Volcan.







- Altitude de l'aérodrome : 600 ft
- Code IATA : VIE


LOWW - Vienna Schwechat

DERNIER METAR :
  • 192250Z 18005KT CAVOK 16/14 Q1021 NOSIG

METARs EXPIRÉS :
  • 192220Z 17003KT 130V200 CAVOK 16/14 Q1021 NOSIG
  • 192150Z 18004KT 150V210 CAVOK 16/14 Q1021 NOSIG
  • 192120Z 18004KT CAVOK 17/14 Q1021 NOSIG
  • 192050Z 16003KT 130V230 CAVOK 18/14 Q1021 NOSIG
  • 192020Z 25005KT CAVOK 21/15 Q1021 NOSIG

TAF TAF LOWW
Valide du 19 à 21h jusqu'au 21 à 03h UTC


192015Z 1921/2103 VRB02KT CAVOK TX28/2014Z TN16/2103Z
TEMPO 1921/2008 22006KT 9999 SCT040
PROB30
TEMPO 2002/2006 1200 BCFG NSC
BECMG 2010/2012 14007KT
Pas de NOTAMs connus pour ce terrain.



MET'MAP, la Météo Aéronautique d'un coup d'oeil ! - Copyright ORBIFLY Décembre 2007 - Disclaimer

ORBIFLY MET'MAP TEAM :

Programmation & Développement : Alexandra Zaïnal
Conception & Développement : Baudouin d'Aumeries
Co-Programmation & Développement : Marc-Olivier Méhu
Soutien technique & logistique : Manuel Goepfert

Contact : metmap@orbifly.com




SOURCES & CREDITS :

   NOAA